Time;durP1;ratioP1;P1;durP2;ratioP2;P2;SDS_P1;SDS_P2;PMS_P1;PMS_P2;Temp;Humidity;BMP_temperature;BMP_pressure;BME280_temperature;BME280_humidity;BME280_pressure;Samples;Min_cycle;Max_cycle;Signal;HPM_P1;HPM_P2
2022/08/12 00:44:55;;;;;;;5.32;4.80;;;18.30;99.90;;;;;;5006647;28;20110;-89
2022/08/12 00:47:21;;;;;;;5.20;4.55;;;18.30;99.90;;;;;;4982695;28;20147;-88
2022/08/12 00:49:48;;;;;;;6.90;5.28;;;18.20;99.90;;;;;;4995996;28;20092;-88
2022/08/12 00:52:16;;;;;;;6.13;4.55;;;18.20;99.90;;;;;;4991070;28;20041;-88
2022/08/12 00:54:46;;;;;;;5.20;4.45;;;18.20;99.90;;;;;;4992639;28;20033;-88
2022/08/12 00:57:24;;;;;;;5.70;4.95;;;18.20;99.90;;;;;;5006674;28;20119;-88
2022/08/12 00:59:51;;;;;;;6.15;4.82;;;18.10;99.90;;;;;;4993073;28;20057;-88
2022/08/12 01:02:25;;;;;;;5.65;5.18;;;18.10;99.90;;;;;;4988343;28;20400;-88
2022/08/12 01:13:19;;;;;;;6.30;5.30;;;18.00;99.90;;;;;;5000395;28;20049;-88
2022/08/12 01:15:46;;;;;;;6.80;5.72;;;17.90;99.90;;;;;;4989214;28;20534;-87
2022/08/12 01:18:16;;;;;;;5.45;4.95;;;17.90;99.90;;;;;;4981191;28;20559;-87
2022/08/12 01:20:52;;;;;;;5.78;5.13;;;17.80;99.90;;;;;;4988684;28;20056;-87
2022/08/12 01:23:33;;;;;;;5.80;5.10;;;17.80;99.90;;;;;;4987361;28;20045;-88
2022/08/12 01:26:02;;;;;;;5.43;4.38;;;17.80;99.90;;;;;;4990715;28;20045;-88
2022/08/12 01:28:30;;;;;;;5.68;4.47;;;17.70;99.90;;;;;;5010241;28;20044;-88
2022/08/12 01:30:59;;;;;;;5.60;5.10;;;17.70;99.90;;;;;;4990876;28;20045;-88
2022/08/12 01:33:30;;;;;;;5.55;4.78;;;17.60;99.90;;;;;;4995106;28;20045;-88
2022/08/12 01:36:02;;;;;;;6.03;4.57;;;17.60;99.90;;;;;;5006136;28;20138;-87
2022/08/12 01:38:32;;;;;;;6.15;4.90;;;17.60;99.90;;;;;;4994274;28;20055;-88
2022/08/12 01:41:01;;;;;;;7.10;5.65;;;17.50;99.90;;;;;;4988165;28;20081;-88
2022/08/12 01:43:29;;;;;;;5.05;4.60;;;17.50;99.90;;;;;;4986319;28;20510;-88
2022/08/12 01:46:23;;;;;;;5.63;5.07;;;17.50;99.90;;;;;;5008674;28;20492;-88
2022/08/12 01:48:59;;;;;;;6.70;4.55;;;17.40;99.90;;;;;;4996007;28;20137;-88
2022/08/12 01:51:41;;;;;;;6.90;5.72;;;17.40;99.90;;;;;;4996712;28;20492;-88
2022/08/12 01:54:13;;;;;;;5.38;4.88;;;17.30;99.90;;;;;;4988997;28;20029;-88
2022/08/12 01:57:35;;;;;;;6.18;5.57;;;17.30;99.90;;;;;;4996624;28;21619;-87
2022/08/12 02:00:12;;;;;;;6.38;5.50;;;17.30;99.90;;;;;;4974703;28;20414;-88
2022/08/12 02:02:46;;;;;;;5.32;4.80;;;17.30;99.90;;;;;;4995425;28;20161;-88
2022/08/12 02:11:28;;;;;;;5.95;5.38;;;17.20;99.90;;;;;;5013237;28;20041;-88
2022/08/12 02:14:19;;;;;;;6.90;5.80;;;17.20;99.90;;;;;;4993224;28;20103;-88
2022/08/12 02:16:57;;;;;;;7.18;6.10;;;17.10;99.90;;;;;;4991700;28;20049;-88
2022/08/12 02:19:36;;;;;;;7.15;5.38;;;17.10;99.90;;;;;;4993961;28;20041;-88
2022/08/12 02:22:19;;;;;;;8.35;5.82;;;17.10;99.90;;;;;;5010918;28;20045;-88
2022/08/12 02:24:45;;;;;;;9.27;5.80;;;17.10;99.90;;;;;;5005033;28;20099;-88
2022/08/12 02:27:14;;;;;;;6.93;6.22;;;17.10;99.90;;;;;;4995751;28;20499;-88
2022/08/12 02:29:39;;;;;;;6.75;6.15;;;17.10;99.90;;;;;;4996538;28;20049;-88
2022/08/12 02:32:07;;;;;;;6.70;6.10;;;17.10;99.90;;;;;;5010780;28;20037;-88
2022/08/12 02:34:33;;;;;;;6.95;6.15;;;17.00;99.90;;;;;;4994592;28;20116;-88
2022/08/12 02:37:00;;;;;;;7.18;6.43;;;17.00;99.90;;;;;;5000846;28;20140;-88
2022/08/12 02:39:30;;;;;;;7.82;5.53;;;17.00;99.90;;;;;;4994241;28;20041;-88
2022/08/12 02:41:59;;;;;;;6.60;5.45;;;17.00;99.90;;;;;;5012569;28;20103;-88
2022/08/12 02:44:29;;;;;;;7.10;6.10;;;16.90;99.90;;;;;;4996742;28;20029;-87
2022/08/12 02:47:02;;;;;;;7.82;6.10;;;16.90;99.90;;;;;;5006684;28;20041;-88
2022/08/12 02:49:34;;;;;;;6.68;6.03;;;16.90;99.90;;;;;;4992407;28;20033;-87
2022/08/12 02:52:01;;;;;;;6.93;5.80;;;16.90;99.90;;;;;;5036353;28;20049;-88
2022/08/12 02:54:27;;;;;;;9.05;6.53;;;16.80;99.90;;;;;;4983552;28;20053;-88
2022/08/12 02:56:53;;;;;;;7.35;6.65;;;16.80;99.90;;;;;;5022529;28;20026;-87
2022/08/12 02:59:23;;;;;;;8.27;6.65;;;16.80;99.90;;;;;;4992019;28;20420;-88
2022/08/12 03:02:02;;;;;;;7.68;6.43;;;16.80;99.90;;;;;;4986102;28;20053;-88
2022/08/12 03:04:36;;;;;;;6.82;6.22;;;16.70;99.90;;;;;;4983625;28;20053;-88
2022/08/12 03:07:30;;;;;;;9.32;6.43;;;16.70;99.90;;;;;;4988495;28;20045;-87
2022/08/12 03:10:08;;;;;;;7.82;7.03;;;16.70;99.90;;;;;;4985679;28;20427;-87
2022/08/12 03:12:38;;;;;;;7.65;6.90;;;16.70;99.90;;;;;;4988201;28;20037;-88
2022/08/12 03:15:08;;;;;;;8.32;6.82;;;16.60;99.90;;;;;;4992613;28;20053;-87
2022/08/12 03:17:42;;;;;;;7.18;6.47;;;16.60;99.90;;;;;;4996638;28;20037;-88
2022/08/12 03:20:09;;;;;;;;;;;16.60;99.90;;;;;;4992632;28;20049;-88
2022/08/12 03:22:40;;;;;;;7.90;7.10;;;16.60;99.90;;;;;;5007613;28;19917;-88
2022/08/12 03:25:33;;;;;;;8.25;7.15;;;16.50;99.90;;;;;;4991116;28;20448;-88
2022/08/12 03:27:59;;;;;;;7.38;6.68;;;16.50;99.90;;;;;;4998952;28;20048;-88
2022/08/12 03:30:27;;;;;;;8.15;7.35;;;16.50;99.90;;;;;;5032157;28;20044;-88
2022/08/12 03:32:55;;;;;;;7.70;6.90;;;16.50;99.90;;;;;;4987806;28;20042;-88
2022/08/12 03:35:29;;;;;;;8.07;7.25;;;16.50;99.90;;;;;;4987513;28;20124;-88
2022/08/12 03:38:08;;;;;;;7.55;6.72;;;16.40;99.90;;;;;;4994018;28;20040;-88
2022/08/12 04:00:24;;;;;;;8.05;7.20;;;16.20;99.90;;;;;;5026578;28;20073;-88
2022/08/12 04:03:00;;;;;;;8.52;7.72;;;16.20;99.90;;;;;;4997561;28;20033;-87
2022/08/12 04:05:31;;;;;;;8.20;7.40;;;16.20;99.90;;;;;;4989365;28;20076;-87
2022/08/12 04:07:58;;;;;;;8.77;7.88;;;16.10;99.90;;;;;;4989812;28;20048;-87
2022/08/12 04:13:24;;;;;;;9.90;7.47;;;16.10;99.90;;;;;;4983261;28;20041;-88
2022/08/12 04:15:50;;;;;;;9.48;8.57;;;16.10;99.90;;;;;;4994839;28;20533;-89
2022/08/12 04:18:16;;;;;;;9.05;8.15;;;16.10;99.90;;;;;;4987677;28;20037;-86
2022/08/12 04:20:43;;;;;;;9.80;8.80;;;16.10;99.90;;;;;;4995583;28;20665;-88
2022/08/12 04:23:16;;;;;;;9.82;8.00;;;16.10;99.90;;;;;;4992863;28;20049;-85
2022/08/12 04:25:43;;;;;;;10.57;9.10;;;16.10;99.90;;;;;;5000084;28;20041;-82
2022/08/12 04:28:11;;;;;;;9.48;8.57;;;16.10;99.90;;;;;;4999398;28;20129;-83
2022/08/12 04:30:38;;;;;;;9.55;8.30;;;16.10;99.90;;;;;;5004977;28;20041;-83
2022/08/12 04:33:08;;;;;;;9.93;8.90;;;16.10;99.90;;;;;;4999568;28;20052;-82
2022/08/12 04:35:34;;;;;;;9.98;8.98;;;16.00;99.90;;;;;;5002323;28;20041;-84
2022/08/12 04:38:01;;;;;;;9.68;8.75;;;16.10;99.90;;;;;;4991115;28;20065;-86
2022/08/12 04:40:32;;;;;;;9.48;8.27;;;16.10;99.90;;;;;;4997533;28;20053;-83
2022/08/12 04:43:01;;;;;;;9.75;8.75;;;16.10;99.90;;;;;;5003061;28;20101;-82
2022/08/12 04:45:29;;;;;;;12.82;9.85;;;16.10;99.90;;;;;;5007183;28;20109;-83
2022/08/12 04:47:55;;;;;;;12.93;9.45;;;16.10;99.90;;;;;;5008051;28;20040;-82
2022/08/12 04:50:21;;;;;;;10.18;9.02;;;16.10;99.90;;;;;;5009320;28;20037;-82
2022/08/12 04:52:48;;;;;;;9.95;8.98;;;16.10;99.90;;;;;;5023470;28;20045;-82
2022/08/12 04:55:15;;;;;;;12.15;9.02;;;16.10;99.90;;;;;;4995268;28;20076;-86
2022/08/12 04:57:41;;;;;;;10.25;9.20;;;16.10;99.90;;;;;;4999974;28;20134;-82
2022/08/12 05:00:09;;;;;;;11.45;8.63;;;16.20;99.90;;;;;;5000829;28;20041;-81
2022/08/12 05:02:35;;;;;;;9.73;8.35;;;16.20;99.90;;;;;;5013393;28;20045;-82
2022/08/12 05:05:03;;;;;;;11.00;8.50;;;16.20;99.90;;;;;;4994181;28;20049;-83
2022/08/12 05:07:29;;;;;;;10.10;8.85;;;16.30;99.90;;;;;;4996843;28;20053;-84
2022/08/12 05:09:55;;;;;;;10.05;9.05;;;16.30;99.90;;;;;;4998135;28;20034;-82
2022/08/12 05:12:22;;;;;;;9.73;8.73;;;16.30;99.90;;;;;;4993239;28;20500;-86
2022/08/12 05:14:49;;;;;;;10.13;8.25;;;16.40;99.90;;;;;;4998355;28;20094;-86
2022/08/12 05:17:15;;;;;;;12.48;8.90;;;16.40;99.90;;;;;;4992488;28;20042;-86
2022/08/12 05:19:41;;;;;;;10.05;8.63;;;16.40;99.90;;;;;;5005047;28;20130;-87
2022/08/12 05:22:08;;;;;;;10.45;8.98;;;16.50;99.90;;;;;;4999320;28;20088;-87
2022/08/12 05:24:33;;;;;;;8.63;7.65;;;16.50;99.90;;;;;;5001089;28;20038;-87
2022/08/12 05:26:59;;;;;;;9.55;8.55;;;16.60;99.90;;;;;;4998108;28;20066;-87
2022/08/12 05:29:28;;;;;;;9.50;8.43;;;16.60;99.90;;;;;;4999230;28;20546;-87
2022/08/12 05:31:55;;;;;;;9.05;8.00;;;16.60;99.90;;;;;;5002128;28;20112;-87
2022/08/12 05:34:21;;;;;;;9.90;8.13;;;16.70;99.90;;;;;;4999215;28;20042;-87
2022/08/12 05:36:47;;;;;;;10.05;8.85;;;16.70;99.90;;;;;;4994669;28;20052;-87
2022/08/12 05:39:13;;;;;;;10.27;8.02;;;16.80;99.90;;;;;;5002676;28;20045;-86
2022/08/12 05:41:39;;;;;;;9.52;8.25;;;16.80;99.90;;;;;;5018140;28;20554;-88
2022/08/12 05:44:07;;;;;;;9.82;8.45;;;16.90;99.90;;;;;;5020328;28;20120;-87
2022/08/12 05:46:34;;;;;;;9.73;8.63;;;16.90;99.90;;;;;;5022857;28;20105;-86
2022/08/12 05:49:01;;;;;;;10.18;8.45;;;17.00;99.90;;;;;;5024441;28;20026;-87
2022/08/12 05:51:34;;;;;;;8.55;7.63;;;17.00;99.90;;;;;;5004788;28;20049;-87
2022/08/12 05:54:00;;;;;;;;;;;17.00;99.90;;;;;;4988959;28;20041;-87
2022/08/12 05:56:30;;;;;;;8.20;7.18;;;17.00;99.90;;;;;;5000965;28;19921;-87
2022/08/12 05:58:58;;;;;;;9.82;6.97;;;17.20;99.90;;;;;;5018705;28;20552;-87
2022/08/12 06:01:25;;;;;;;11.32;8.52;;;17.20;99.90;;;;;;4991313;28;20042;-87
2022/08/12 06:03:52;;;;;;;7.35;6.60;;;17.30;99.90;;;;;;4995587;28;20030;-87
2022/08/12 06:06:19;;;;;;;9.63;7.75;;;17.40;99.90;;;;;;5002241;28;20484;-88
2022/08/12 06:08:52;;;;;;;7.93;7.05;;;17.50;99.90;;;;;;5015444;28;20045;-88
2022/08/12 06:11:19;;;;;;;7.97;7.18;;;17.50;99.90;;;;;;4997465;28;20041;-87
2022/08/12 06:13:45;;;;;;;8.55;7.40;;;17.60;99.90;;;;;;4993322;28;20045;-87
2022/08/12 06:16:13;;;;;;;7.47;6.72;;;17.70;99.90;;;;;;4994806;28;20056;-87
2022/08/12 06:18:41;;;;;;;8.95;8.05;;;17.80;99.90;;;;;;4997198;28;20067;-87
2022/08/12 06:21:08;;;;;;;7.93;7.18;;;17.80;99.90;;;;;;4999576;28;20045;-87
2022/08/12 06:23:35;;;;;;;8.77;7.07;;;17.90;99.90;;;;;;5013133;28;20080;-86
2022/08/12 06:26:01;;;;;;;9.25;7.72;;;17.90;99.90;;;;;;4996721;28;20079;-87
2022/08/12 06:28:29;;;;;;;9.27;7.63;;;18.00;99.90;;;;;;5002796;28;20045;-88
2022/08/12 06:30:56;;;;;;;7.43;6.72;;;18.00;99.90;;;;;;4993767;28;20430;-88
2022/08/12 06:33:22;;;;;;;10.90;7.57;;;18.10;99.90;;;;;;5017300;28;20032;-86
2022/08/12 06:35:48;;;;;;;8.90;7.78;;;18.20;99.90;;;;;;5021768;28;20165;-88
2022/08/12 06:38:20;;;;;;;8.73;7.93;;;18.30;99.90;;;;;;5004813;28;20117;-88
2022/08/12 06:43:32;;;;;;;7.32;6.47;;;18.40;99.90;;;;;;5016877;28;20042;-87
2022/08/12 06:45:58;;;;;;;10.57;7.10;;;18.40;99.90;;;;;;5003806;28;20037;-86
2022/08/12 06:48:28;;;;;;;7.72;7.00;;;18.60;99.90;;;;;;5010258;28;20042;-87
2022/08/12 06:50:56;;;;;;;7.22;6.30;;;18.60;99.90;;;;;;5002844;28;20618;-88
2022/08/12 06:53:23;;;;;;;9.82;6.35;;;18.70;99.90;;;;;;5015049;28;20045;-87
2022/08/12 06:55:53;;;;;;;8.00;6.50;;;18.80;99.90;;;;;;4993523;28;20046;-88
2022/08/12 06:58:20;;;;;;;6.88;6.18;;;18.90;99.90;;;;;;4995216;28;20040;-88
2022/08/12 07:00:48;;;;;;;7.90;6.28;;;19.00;99.90;;;;;;4991799;28;20064;-88
2022/08/12 07:03:24;;;;;;;7.22;6.32;;;19.00;99.90;;;;;;4999739;28;20048;-88
2022/08/12 07:05:50;;;;;;;6.78;6.13;;;19.20;99.90;;;;;;4992456;28;20050;-88
2022/08/12 07:08:16;;;;;;;6.97;6.28;;;19.30;99.90;;;;;;5000186;28;20064;-87
2022/08/12 07:10:49;;;;;;;5.93;5.22;;;19.40;99.90;;;;;;4987699;28;20037;-88
2022/08/12 07:13:15;;;;;;;6.10;5.57;;;19.50;99.90;;;;;;4996024;28;20084;-88
2022/08/12 07:15:44;;;;;;;6.95;5.55;;;19.60;99.90;;;;;;4995931;28;20041;-87
2022/08/12 07:18:18;;;;;;;7.03;5.40;;;19.80;99.90;;;;;;4991523;28;20048;-88
2022/08/12 07:20:49;;;;;;;9.20;5.50;;;20.00;99.90;;;;;;4985106;28;20047;-88
2022/08/12 07:23:17;;;;;;;5.80;5.28;;;20.10;99.90;;;;;;4987958;28;20037;-88
2022/08/12 07:25:43;;;;;;;8.50;5.50;;;20.30;99.90;;;;;;5001016;28;20701;-88
2022/08/12 07:28:14;;;;;;;5.88;4.88;;;20.50;99.90;;;;;;4990244;28;20459;-88
2022/08/12 07:30:41;;;;;;;5.50;5.00;;;20.70;99.90;;;;;;5015519;28;20046;-88
2022/08/12 07:33:08;;;;;;;5.82;5.32;;;20.90;99.90;;;;;;5013683;28;20059;-88
2022/08/12 07:35:46;;;;;;;5.82;5.32;;;21.10;99.90;;;;;;5010344;28;20052;-88
2022/08/12 07:38:29;;;;;;;5.30;4.70;;;21.30;99.90;;;;;;5002657;28;20045;-88
2022/08/12 07:41:00;;;;;;;8.70;5.85;;;21.60;99.90;;;;;;4987975;28;20053;-87
2022/08/12 07:43:27;;;;;;;5.90;5.28;;;21.80;99.90;;;;;;4995866;28;20400;-88
2022/08/12 07:45:54;;;;;;;5.65;5.10;;;22.10;99.90;;;;;;4987479;28;20045;-88
2022/08/12 07:48:22;;;;;;;6.35;5.15;;;22.30;99.90;;;;;;5001161;28;20503;-88
2022/08/12 07:50:48;;;;;;;7.15;5.55;;;22.60;99.90;;;;;;4991529;28;20093;-86
2022/08/12 07:53:14;;;;;;;7.68;5.40;;;22.70;99.90;;;;;;4997592;28;20488;-87
2022/08/12 07:55:40;;;;;;;10.40;5.32;;;23.00;99.90;;;;;;4988611;28;20080;-88
2022/08/12 07:58:07;;;;;;;8.85;5.40;;;23.20;99.90;;;;;;5000936;28;20041;-88
2022/08/12 08:00:36;;;;;;;5.70;5.25;;;23.50;99.90;;;;;;5034987;28;20147;-88
2022/08/12 08:03:02;;;;;;;5.40;4.90;;;23.70;99.90;;;;;;4999725;28;20053;-89
2022/08/12 08:05:40;;;;;;;7.57;4.47;;;23.90;98.50;;;;;;5012340;28;20462;-88
2022/08/12 08:08:18;;;;;;;5.97;4.40;;;24.20;98.10;;;;;;5001113;28;20053;-88
2022/08/12 08:10:45;;;;;;;5.95;4.85;;;24.50;94.80;;;;;;5006094;28;20037;-88
2022/08/12 08:13:11;;;;;;;7.78;4.78;;;24.70;93.90;;;;;;4999078;28;20124;-87
2022/08/12 08:15:38;;;;;;;7.50;4.18;;;24.90;91.80;;;;;;5006050;28;20150;-88
2022/08/12 08:18:09;;;;;;;5.22;4.38;;;25.10;90.80;;;;;;5002677;28;20034;-89
2022/08/12 08:20:41;;;;;;;5.15;4.40;;;25.30;90.10;;;;;;4999583;28;20038;-88
2022/08/12 08:23:17;;;;;;;6.00;4.47;;;25.70;86.10;;;;;;5006335;28;20137;-88
2022/08/12 08:25:47;;;;;;;8.50;4.03;;;25.90;81.00;;;;;;5002708;28;20054;-88
2022/08/12 08:28:15;;;;;;;4.45;4.05;;;26.10;79.30;;;;;;5006174;28;20540;-88
2022/08/12 08:30:44;;;;;;;4.15;3.80;;;26.30;78.00;;;;;;4999244;28;20042;-88
2022/08/12 08:33:11;;;;;;;4.20;3.80;;;26.50;74.60;;;;;;5003709;28;20029;-88
2022/08/12 08:35:40;;;;;;;7.07;3.70;;;26.80;73.80;;;;;;5000125;28;20048;-88
2022/08/12 08:38:12;;;;;;;5.30;4.22;;;26.90;70.80;;;;;;5017768;28;20046;-88
2022/08/12 08:43:26;;;;;;;5.30;4.20;;;27.20;67.50;;;;;;5013100;28;20050;-88
2022/08/12 08:45:53;;;;;;;5.00;3.97;;;27.40;65.30;;;;;;5020603;28;20053;-88
2022/08/12 08:48:21;;;;;;;4.35;3.95;;;27.60;64.90;;;;;;4997314;28;20050;-88
2022/08/12 08:50:47;;;;;;;6.22;4.10;;;27.90;64.40;;;;;;5000453;28;20049;-89
2022/08/12 08:53:16;;;;;;;6.03;3.65;;;28.10;62.90;;;;;;5025517;28;20045;-88
2022/08/12 08:55:42;;;;;;;4.70;3.97;;;28.40;62.50;;;;;;5004377;28;20041;-89
2022/08/12 08:58:08;;;;;;;6.53;3.70;;;28.60;62.10;;;;;;4996462;28;20045;-88
2022/08/12 09:00:41;;;;;;;6.15;3.90;;;28.70;59.70;;;;;;5003393;28;20055;-88
2022/08/12 09:03:07;;;;;;;7.03;4.18;;;28.80;59.40;;;;;;4994946;28;20389;-88
2022/08/12 09:05:34;;;;;;;4.35;3.80;;;29.00;57.70;;;;;;4999194;28;20075;-89
2022/08/12 09:08:03;;;;;;;4.22;3.75;;;29.20;58.80;;;;;;5005540;28;20033;-88
2022/08/12 09:10:29;;;;;;;6.13;4.00;;;29.40;58.70;;;;;;5004479;28;20111;-88
2022/08/12 09:15:40;;;;;;;3.78;3.35;;;29.70;57.50;;;;;;5020031;28;20053;-89
2022/08/12 09:18:07;;;;;;;4.25;3.60;;;29.90;57.70;;;;;;4999494;28;20042;-89
2022/08/12 09:20:34;;;;;;;4.72;3.30;;;30.10;56.60;;;;;;5004574;28;20047;-90
2022/08/12 09:23:02;;;;;;;5.68;3.47;;;30.50;56.00;;;;;;4996136;28;20048;-89
2022/08/12 09:25:32;;;;;;;4.60;3.70;;;30.80;55.80;;;;;;5032604;28;20415;-89
2022/08/12 09:27:58;;;;;;;3.72;3.20;;;31.10;54.90;;;;;;5005277;28;20101;-86
2022/08/12 09:30:25;;;;;;;4.38;3.40;;;31.30;54.20;;;;;;5023518;28;20080;-87
2022/08/12 09:32:51;;;;;;;5.22;3.10;;;31.40;51.20;;;;;;5004338;28;20080;-86
2022/08/12 09:35:32;;;;;;;3.65;3.30;;;31.60;50.50;;;;;;4993369;28;20108;-88
2022/08/12 09:38:00;;;;;;;5.78;3.30;;;31.60;48.30;;;;;;5001913;28;20033;-87
2022/08/12 09:40:28;;;;;;;3.95;3.45;;;31.80;50.40;;;;;;5005582;28;20045;-87
2022/08/12 09:45:47;;;;;;;4.03;3.65;;;32.10;50.20;;;;;;5025374;28;20057;-87
2022/08/12 09:48:15;;;;;;;5.88;3.25;;;32.10;48.90;;;;;;4995232;28;20041;-88
2022/08/12 09:50:44;;;;;;;4.57;3.28;;;32.30;49.50;;;;;;4999574;28;20534;-88
2022/08/12 09:53:15;;;;;;;4.97;3.80;;;32.50;48.60;;;;;;5000532;28;20466;-87
2022/08/12 09:55:46;;;;;;;3.58;3.20;;;32.60;45.70;;;;;;5001135;28;20049;-87
2022/08/12 09:58:15;;;;;;;4.05;3.20;;;32.70;46.30;;;;;;4994852;28;20049;-87
2022/08/12 10:00:42;;;;;;;5.65;3.13;;;32.80;46.60;;;;;;4998613;28;20128;-88
2022/08/12 10:03:09;;;;;;;5.10;3.53;;;32.90;46.20;;;;;;4994984;28;20046;-87
2022/08/12 10:05:46;;;;;;;4.82;3.10;;;33.00;45.00;;;;;;5003612;28;20048;-88
2022/08/12 10:08:15;;;;;;;4.85;3.10;;;33.20;44.20;;;;;;5001380;28;20065;-88
2022/08/12 10:13:42;;;;;;;3.85;3.10;;;33.60;43.80;;;;;;5025688;28;20054;-87
2022/08/12 10:16:21;;;;;;;3.80;2.88;;;33.80;42.80;;;;;;5004857;28;20038;-88
2022/08/12 10:18:53;;;;;;;6.15;3.08;;;34.10;42.90;;;;;;5000258;28;20049;-87
2022/08/12 10:21:20;;;;;;;3.53;3.22;;;34.30;42.70;;;;;;5020544;28;20037;-88
2022/08/12 10:23:47;;;;;;;4.10;2.90;;;34.50;42.80;;;;;;5013766;28;20053;-88
2022/08/12 10:31:56;;;;;;;5.85;3.08;;;34.80;40.80;;;;;;5007607;28;20056;-88
2022/08/12 10:34:23;;;;;;;3.55;3.25;;;34.90;40.40;;;;;;5000862;28;20044;-88
2022/08/12 10:36:54;;;;;;;3.25;2.95;;;35.20;41.00;;;;;;5003435;28;20389;-89
2022/08/12 10:39:22;;;;;;;5.73;2.80;;;35.20;40.50;;;;;;5000768;28;20079;-89
2022/08/12 10:44:32;;;;;;;5.50;3.00;;;34.90;38.20;;;;;;5019218;28;20057;-88
2022/08/12 10:46:58;;;;;;;3.10;2.80;;;34.80;38.50;;;;;;4996222;28;20053;-88
2022/08/12 10:49:26;;;;;;;4.38;3.00;;;34.80;38.50;;;;;;5000214;28;20040;-88
2022/08/12 10:51:55;;;;;;;3.63;2.88;;;34.90;38.40;;;;;;4997200;28;20092;-88
2022/08/12 10:54:21;;;;;;;5.20;3.00;;;35.00;39.00;;;;;;4996134;28;20037;-89
2022/08/12 10:56:48;;;;;;;4.25;2.92;;;35.10;38.50;;;;;;4991779;28;20056;-88
2022/08/12 10:59:20;;;;;;;3.47;3.20;;;35.10;37.80;;;;;;4995869;28;20045;-88
2022/08/12 11:01:50;;;;;;;4.53;2.85;;;35.30;38.20;;;;;;4996399;28;20060;-88
2022/08/12 11:04:16;;;;;;;3.15;2.83;;;35.40;37.90;;;;;;4998774;28;20558;-87
2022/08/12 11:06:46;;;;;;;3.55;2.78;;;35.60;36.10;;;;;;5011462;28;20045;-87
2022/08/12 11:09:20;;;;;;;3.88;2.80;;;35.70;36.70;;;;;;5010583;28;20038;-88
2022/08/12 11:11:47;;;;;;;6.30;2.60;;;35.80;36.40;;;;;;4991183;28;20041;-87
2022/08/12 11:14:20;;;;;;;2.97;2.60;;;35.90;36.90;;;;;;4994192;28;20099;-85
2022/08/12 11:16:46;;;;;;;2.60;2.13;;;36.10;35.10;;;;;;5014487;28;20046;-88
2022/08/12 11:19:12;;;;;;;3.63;2.35;;;36.20;33.80;;;;;;4992842;28;20048;-87
2022/08/12 11:21:39;;;;;;;3.00;2.70;;;36.10;34.40;;;;;;5014032;28;20104;-88
2022/08/12 11:24:05;;;;;;;4.55;2.72;;;36.10;33.40;;;;;;4996590;28;20060;-87
2022/08/12 11:26:32;;;;;;;6.32;2.30;;;36.10;33.40;;;;;;5004076;28;20041;-88
2022/08/12 11:28:57;;;;;;;4.47;2.20;;;36.00;32.00;;;;;;5002671;28;20037;-88
2022/08/12 11:31:23;;;;;;;3.03;2.72;;;36.10;33.10;;;;;;5018202;28;20187;-88
2022/08/12 11:33:49;;;;;;;3.65;2.30;;;36.20;32.60;;;;;;4988455;28;20450;-87
2022/08/12 11:36:16;;;;;;;2.50;2.28;;;36.10;33.70;;;;;;4993322;28;20037;-88
2022/08/12 11:38:42;;;;;;;5.03;2.38;;;36.40;34.10;;;;;;4990959;28;20045;-86
2022/08/12 11:41:08;;;;;;;3.63;2.58;;;36.50;32.20;;;;;;4998961;28;20112;-86
2022/08/12 11:43:34;;;;;;;3.80;2.60;;;36.10;31.00;;;;;;4998549;28;20061;-87
2022/08/12 11:46:00;;;;;;;4.43;2.70;;;36.10;32.80;;;;;;4998547;28;20122;-86
2022/08/12 11:48:26;;;;;;;2.60;2.40;;;36.30;31.30;;;;;;4987601;28;20048;-88
2022/08/12 11:50:51;;;;;;;2.38;2.05;;;36.50;31.60;;;;;;4994832;28;20404;-87
2022/08/12 11:53:17;;;;;;;4.18;2.70;;;36.60;32.70;;;;;;4993558;28;20035;-87
2022/08/12 11:55:43;;;;;;;4.78;2.50;;;36.90;31.90;;;;;;4989321;28;20056;-86
2022/08/12 11:58:09;;;;;;;2.75;2.55;;;37.10;31.70;;;;;;4997463;28;20041;-87
2022/08/12 12:00:35;;;;;;;3.47;2.40;;;37.30;30.90;;;;;;4991360;28;20045;-86
2022/08/12 12:03:01;;;;;;;3.92;2.35;;;37.40;31.70;;;;;;4994211;28;20042;-86
2022/08/12 12:05:27;;;;;;;3.00;2.70;;;37.70;31.00;;;;;;4994260;28;20054;-87
2022/08/12 12:07:52;;;;;;;4.95;3.17;;;37.60;29.70;;;;;;4994801;28;20041;-86
2022/08/12 12:10:19;;;;;;;4.88;2.63;;;37.50;31.50;;;;;;4997963;28;20038;-86
2022/08/12 12:12:45;;;;;;;4.38;2.60;;;37.30;30.90;;;;;;4982417;28;20489;-86
2022/08/12 12:15:12;;;;;;;2.90;2.70;;;37.50;31.70;;;;;;4990774;28;20030;-87
2022/08/12 12:17:40;;;;;;;3.45;2.22;;;37.50;30.20;;;;;;4996582;28;20080;-86
2022/08/12 12:20:10;;;;;;;3.80;2.47;;;37.90;29.80;;;;;;4997477;28;20053;-86
2022/08/12 12:22:37;;;;;;;2.90;2.65;;;38.10;29.00;;;;;;5011902;28;20049;-86
2022/08/12 12:25:04;;;;;;;2.78;2.60;;;38.30;29.80;;;;;;4995245;28;20058;-86
2022/08/12 12:27:46;;;;;;;4.22;2.80;;;38.60;30.00;;;;;;4988501;28;20037;-86
2022/08/12 12:30:12;;;;;;;3.10;2.88;;;38.20;28.20;;;;;;4996457;28;20120;-86
2022/08/12 12:32:38;;;;;;;3.83;2.45;;;37.80;29.70;;;;;;5011155;28;20539;-86
2022/08/12 12:35:04;;;;;;;3.65;2.58;;;37.60;30.10;;;;;;5029826;28;20037;-86
2022/08/12 12:37:30;;;;;;;4.25;2.72;;;37.80;29.50;;;;;;4985408;28;20049;-86
2022/08/12 12:39:58;;;;;;;3.08;2.78;;;37.90;29.30;;;;;;4993036;28;20042;-86
2022/08/12 12:42:24;;;;;;;3.13;2.80;;;38.20;30.10;;;;;;4994333;28;20111;-86
2022/08/12 12:44:50;;;;;;;3.00;2.75;;;38.50;30.20;;;;;;4994118;28;20093;-86
2022/08/12 12:47:16;;;;;;;3.20;2.88;;;38.90;30.50;;;;;;4987344;28;20127;-86
2022/08/12 12:49:42;;;;;;;5.00;3.10;;;39.20;30.20;;;;;;4987307;28;20515;-85
2022/08/12 12:52:08;;;;;;;3.22;2.92;;;39.50;29.60;;;;;;4996377;28;20041;-85
2022/08/12 12:54:33;;;;;;;3.10;2.63;;;39.50;29.50;;;;;;4990094;28;20033;-86
2022/08/12 12:56:59;;;;;;;3.33;2.90;;;39.60;29.20;;;;;;5011001;28;20460;-85
2022/08/12 12:59:27;;;;;;;4.40;2.63;;;39.70;28.80;;;;;;4991530;28;20554;-86
2022/08/12 13:01:54;;;;;;;3.97;2.80;;;39.90;29.70;;;;;;4995306;28;20503;-86
2022/08/12 13:04:20;;;;;;;6.85;3.22;;;40.00;28.30;;;;;;4989928;28;20041;-86
2022/08/12 13:06:52;;;;;;;3.05;2.58;;;39.50;28.50;;;;;;4986034;28;20051;-85
2022/08/12 13:09:18;;;;;;;3.10;2.80;;;39.70;28.50;;;;;;4992193;28;20034;-85
2022/08/12 13:11:45;;;;;;;3.20;2.90;;;39.80;29.50;;;;;;4989404;28;20033;-85
2022/08/12 13:14:12;;;;;;;4.28;2.90;;;39.90;28.90;;;;;;4988580;28;20030;-85
2022/08/12 13:16:42;;;;;;;5.18;3.10;;;39.60;28.00;;;;;;5022786;28;20412;-85
2022/08/12 13:19:08;;;;;;;3.20;2.90;;;39.10;27.80;;;;;;4995805;28;20099;-85
2022/08/12 13:21:34;;;;;;;3.53;3.20;;;38.80;28.10;;;;;;4987730;28;20049;-85
2022/08/12 13:24:19;;;;;;;3.47;3.13;;;38.90;27.90;;;;;;4995754;28;20475;-85
2022/08/12 13:26:45;;;;;;;4.97;2.97;;;39.00;28.00;;;;;;4990567;28;20073;-85
2022/08/12 13:29:11;;;;;;;3.42;2.97;;;38.80;29.00;;;;;;4985984;28;20070;-86
2022/08/12 13:31:38;;;;;;;3.80;3.28;;;38.80;29.60;;;;;;4985855;28;20050;-86
2022/08/12 13:34:04;;;;;;;6.35;3.70;;;39.20;29.40;;;;;;4987356;28;20496;-86
2022/08/12 13:36:29;;;;;;;4.18;3.33;;;39.60;29.20;;;;;;4994900;28;20049;-85
2022/08/12 13:38:56;;;;;;;4.53;3.05;;;39.80;28.70;;;;;;4986846;28;20041;-85
2022/08/12 13:41:35;;;;;;;3.58;3.13;;;40.00;28.00;;;;;;4990187;28;20046;-86
2022/08/12 13:44:04;;;;;;;7.47;3.08;;;40.50;28.70;;;;;;4988152;28;20132;-86
2022/08/12 13:46:30;;;;;;;3.28;2.97;;;40.80;27.70;;;;;;4989709;28;20052;-86
2022/08/12 13:48:55;;;;;;;3.92;3.00;;;40.30;27.30;;;;;;4985807;28;20037;-86
2022/08/12 13:51:22;;;;;;;4.00;3.00;;;40.50;27.40;;;;;;5033590;28;20038;-86
2022/08/12 13:53:49;;;;;;;3.80;3.40;;;40.00;26.90;;;;;;5011046;28;20033;-86
2022/08/12 13:56:15;;;;;;;3.65;3.33;;;39.70;27.90;;;;;;4999519;28;20077;-86
2022/08/12 13:58:48;;;;;;;3.38;3.15;;;40.20;28.70;;;;;;5013287;28;20053;-87
2022/08/12 14:01:19;;;;;;;3.58;3.20;;;40.50;28.20;;;;;;4995997;28;20095;-86
2022/08/12 14:03:46;;;;;;;5.85;2.80;;;40.80;27.40;;;;;;4990905;28;20041;-85
2022/08/12 14:06:12;;;;;;;3.15;2.85;;;40.70;28.20;;;;;;4993810;28;20499;-86
2022/08/12 14:08:38;;;;;;;4.00;3.28;;;41.10;27.70;;;;;;5000766;28;20041;-86
2022/08/12 14:11:04;;;;;;;4.25;3.20;;;41.30;28.40;;;;;;4995643;28;20038;-86
2022/08/12 14:13:36;;;;;;;4.15;3.10;;;41.60;28.00;;;;;;4995022;28;20038;-86
2022/08/12 14:16:02;;;;;;;;;;;41.50;27.20;;;;;;4986083;28;20558;-86
2022/08/12 14:18:33;;;;;;;3.38;2.83;;;41.40;26.60;;;;;;4998619;28;19917;-86
2022/08/12 14:21:02;;;;;;;2.67;2.47;;;41.60;27.40;;;;;;4991067;28;20052;-85
2022/08/12 14:23:34;;;;;;;5.15;2.80;;;41.90;27.40;;;;;;4993102;28;20513;-85
2022/08/12 14:26:05;;;;;;;6.65;2.50;;;42.00;27.60;;;;;;5004554;28;20091;-85
2022/08/12 14:28:33;;;;;;;3.70;2.75;;;42.10;26.70;;;;;;4995579;28;20484;-86
2022/08/12 14:31:09;;;;;;;4.47;3.00;;;42.10;27.10;;;;;;5004479;28;20049;-89
2022/08/12 14:33:44;;;;;;;3.80;3.03;;;42.10;26.90;;;;;;4997141;28;20088;-87
2022/08/12 14:36:11;;;;;;;5.10;2.67;;;41.90;26.00;;;;;;4999120;28;20080;-86
2022/08/12 14:38:39;;;;;;;4.15;2.63;;;41.60;25.80;;;;;;5031897;28;20042;-86
2022/08/12 14:41:06;;;;;;;4.45;3.08;;;41.50;26.40;;;;;;5000887;28;20037;-86